createdAt,value
2022-09-10T00:03:19.728Z,21.83
2022-09-10T00:08:24.967Z,22.85
2022-09-10T00:13:28.946Z,18.10
2022-09-10T00:18:33.443Z,20.63
2022-09-10T00:23:39.122Z,20.35
2022-09-10T00:33:47.634Z,19.60
2022-09-10T00:38:55.008Z,18.65
2022-09-10T00:44:00.285Z,16.92
2022-09-10T00:49:12.267Z,19.80
2022-09-10T00:54:20.741Z,19.83
2022-09-10T00:59:27.716Z,18.92
2022-09-10T01:04:33.632Z,18.15
2022-09-10T01:09:40.621Z,20.52
2022-09-10T01:15:05.744Z,19.00
2022-09-10T01:20:35.559Z,18.93
2022-09-10T01:25:52.688Z,18.02
2022-09-10T01:31:05.232Z,15.80
2022-09-10T01:36:15.174Z,17.05
2022-09-10T01:41:25.333Z,16.10
2022-09-10T01:46:41.785Z,17.85
2022-09-10T01:52:03.207Z,15.10
2022-09-10T01:57:20.163Z,17.85
2022-09-10T02:02:31.876Z,15.63
2022-09-10T02:07:39.611Z,17.45
2022-09-10T02:12:44.707Z,15.82
2022-09-10T02:18:08.535Z,17.25
2022-09-10T02:23:18.494Z,13.57
2022-09-10T02:28:22.330Z,16.20
2022-09-10T02:33:28.197Z,14.75
2022-09-10T02:38:33.876Z,15.38
2022-09-10T02:43:38.401Z,14.95
2022-09-10T02:48:45.914Z,11.25
2022-09-10T02:53:50.631Z,12.93
2022-09-10T02:58:54.725Z,16.08
2022-09-10T03:04:03.519Z,13.82
2022-09-10T03:09:08.664Z,15.82
2022-09-10T03:14:20.225Z,15.98
2022-09-10T03:19:25.519Z,12.70
2022-09-10T03:24:29.555Z,12.75
2022-09-10T03:29:33.671Z,12.80
2022-09-10T03:34:40.063Z,13.07
2022-09-10T03:39:44.111Z,13.23
2022-09-10T03:44:48.018Z,15.23
2022-09-10T03:49:53.767Z,13.63
2022-09-10T03:54:58.830Z,12.52
2022-09-10T04:00:04.924Z,13.55
2022-09-10T04:05:20.553Z,14.18
2022-09-10T04:10:26.166Z,14.98
2022-09-10T04:15:30.223Z,15.18
2022-09-10T04:20:36.727Z,11.57
2022-09-10T04:25:45.361Z,15.10
2022-09-10T04:30:51.295Z,12.90
2022-09-10T04:36:00.594Z,14.18
2022-09-10T04:41:05.124Z,13.82
2022-09-10T04:46:10.227Z,13.53
2022-09-10T04:51:18.481Z,14.52
2022-09-10T04:56:29.758Z,16.50
2022-09-10T05:01:34.943Z,15.35
2022-09-10T05:06:40.361Z,18.35
2022-09-10T05:11:47.428Z,15.13
2022-09-10T05:16:51.435Z,13.60
2022-09-10T05:21:57.263Z,14.82
2022-09-10T05:27:01.829Z,17.13
2022-09-10T05:32:06.176Z,17.65
2022-09-10T05:37:12.187Z,16.93
2022-09-10T05:42:17.290Z,13.10
2022-09-10T05:47:21.852Z,11.23
2022-09-10T05:52:27.663Z,12.07
2022-09-10T05:57:36.761Z,11.15
2022-09-10T06:02:41.781Z,10.20
2022-09-10T06:08:00.178Z,10.52
2022-09-10T06:13:04.031Z,12.02
2022-09-10T06:18:07.997Z,11.80
2022-09-10T06:23:13.577Z,12.20
2022-09-10T06:28:17.719Z,11.80
2022-09-10T06:33:24.006Z,11.98
2022-09-10T06:38:33.678Z,11.35
2022-09-10T06:43:38.448Z,12.00
2022-09-10T06:49:00.913Z,10.48
2022-09-10T06:54:11.553Z,11.57
2022-09-10T06:59:17.150Z,11.98
2022-09-10T07:04:23.784Z,12.30
2022-09-10T07:09:28.937Z,11.35
2022-09-10T07:14:35.035Z,12.52
2022-09-10T07:19:42.697Z,14.50
2022-09-10T07:24:56.153Z,14.90
2022-09-10T07:30:24.370Z,13.82
2022-09-10T07:35:31.340Z,14.43
2022-09-10T07:40:37.641Z,20.92
2022-09-10T07:45:43.052Z,20.45
2022-09-10T07:50:47.727Z,17.73
2022-09-10T07:56:02.230Z,14.68
2022-09-10T08:01:12.719Z,14.13
2022-09-10T08:06:18.482Z,14.73
2022-09-10T08:11:26.410Z,13.10
2022-09-10T08:16:33.199Z,12.70
2022-09-10T08:21:44.639Z,12.50
2022-09-10T08:26:52.841Z,10.85
2022-09-10T08:31:56.863Z,10.68
2022-09-10T08:37:05.264Z,10.07
2022-09-10T08:42:19.863Z,12.60
2022-09-10T08:47:33.445Z,11.85
2022-09-10T08:52:48.952Z,10.30
2022-09-10T08:58:11.600Z,9.00
2022-09-10T09:03:32.270Z,8.48
2022-09-10T09:08:48.636Z,9.20
2022-09-10T09:14:21.823Z,9.75
2022-09-10T09:19:36.415Z,8.90
2022-09-10T09:30:02.171Z,9.40
2022-09-10T09:35:23.942Z,10.48
2022-09-10T09:40:37.373Z,10.50
2022-09-10T09:45:47.896Z,9.95
2022-09-10T09:51:00.759Z,15.13
2022-09-10T09:56:09.715Z,9.68
2022-09-10T10:01:21.421Z,8.73
2022-09-10T10:06:35.957Z,7.80
2022-09-10T10:11:45.678Z,8.60
2022-09-10T10:17:00.440Z,8.88
2022-09-10T10:22:22.328Z,10.13
2022-09-10T10:27:33.046Z,9.55
2022-09-10T10:32:48.828Z,8.57
2022-09-10T10:38:14.458Z,9.10
2022-09-10T10:43:31.441Z,6.73
2022-09-10T10:48:49.456Z,6.72
2022-09-10T10:54:08.122Z,6.70
2022-09-10T10:59:31.371Z,6.20
2022-09-10T11:04:45.277Z,6.68
2022-09-10T11:09:56.180Z,7.15
2022-09-10T11:15:04.418Z,7.35
2022-09-10T11:20:28.552Z,7.25
2022-09-10T11:25:40.263Z,5.75
2022-09-10T11:30:50.680Z,5.88
2022-09-10T11:36:01.677Z,6.10
2022-09-10T11:41:15.587Z,5.50
2022-09-10T11:46:25.531Z,6.05
2022-09-10T11:51:33.779Z,5.05
2022-09-10T11:56:51.235Z,4.28
2022-09-10T12:02:16.508Z,4.30
2022-09-10T12:07:36.460Z,4.13
2022-09-10T12:12:43.512Z,4.70
2022-09-10T12:17:51.943Z,4.75
2022-09-10T12:22:58.086Z,3.90
2022-09-10T12:28:03.459Z,3.85
2022-09-10T12:33:54.312Z,4.00
2022-09-10T12:39:23.093Z,4.25
2022-09-10T12:44:44.811Z,5.07
2022-09-10T12:55:06.218Z,3.67
2022-09-10T13:00:22.114Z,4.78
2022-09-10T13:10:34.885Z,4.40
2022-09-10T13:15:40.132Z,4.80
2022-09-10T13:20:44.089Z,4.20
2022-09-10T13:25:51.432Z,4.40
2022-09-10T13:31:02.839Z,5.30
2022-09-10T13:36:19.778Z,4.95
2022-09-10T13:42:00.333Z,4.68
2022-09-10T13:47:10.937Z,4.80
2022-09-10T13:52:18.747Z,5.20
2022-09-10T13:57:29.603Z,6.40
2022-09-10T14:02:41.891Z,5.50
2022-09-10T14:07:46.060Z,6.10
2022-09-10T14:12:52.790Z,6.05
2022-09-10T14:18:00.079Z,8.13
2022-09-10T14:23:05.969Z,8.50
2022-09-10T14:28:25.008Z,7.03
2022-09-10T14:33:33.044Z,8.45
2022-09-10T14:38:40.145Z,6.15
2022-09-10T14:43:45.753Z,7.43
2022-09-10T14:49:09.149Z,6.00
2022-09-10T14:54:14.985Z,6.97
2022-09-10T14:59:29.377Z,5.75
2022-09-10T15:04:33.677Z,7.30
2022-09-10T15:09:37.714Z,5.65
2022-09-10T15:14:43.014Z,7.60
2022-09-10T15:19:48.383Z,6.57
2022-09-10T15:25:09.179Z,8.65
2022-09-10T15:30:17.418Z,6.18
2022-09-10T15:35:21.811Z,6.45
2022-09-10T15:40:26.122Z,6.47
2022-09-10T15:45:34.848Z,6.13
2022-09-10T15:50:39.222Z,9.18
2022-09-10T15:55:43.163Z,6.80
2022-09-10T16:00:48.525Z,7.10
2022-09-10T16:05:53.146Z,7.38
2022-09-10T16:10:57.336Z,7.55
2022-09-10T16:16:05.172Z,7.07
2022-09-10T16:21:11.612Z,8.13
2022-09-10T16:26:18.311Z,7.68
2022-09-10T16:31:25.268Z,7.25
2022-09-10T16:36:31.335Z,7.60
2022-09-10T16:41:35.243Z,7.55
2022-09-10T16:46:40.776Z,7.35
2022-09-10T16:51:46.209Z,7.00
2022-09-10T16:56:50.552Z,7.03
2022-09-10T17:01:59.586Z,8.88
2022-09-10T17:07:04.002Z,8.50
2022-09-10T17:12:10.581Z,9.10
2022-09-10T17:17:16.172Z,8.70
2022-09-10T17:22:20.125Z,8.20
2022-09-10T17:27:25.652Z,8.30
2022-09-10T17:37:38.771Z,8.85
2022-09-10T17:42:42.565Z,8.70
2022-09-10T17:47:48.451Z,7.82
2022-09-10T17:52:52.795Z,8.55
2022-09-10T17:57:56.565Z,7.30
2022-09-10T18:03:01.919Z,8.25
2022-09-10T18:08:07.053Z,7.70
2022-09-10T18:13:11.028Z,10.38
2022-09-10T18:18:16.319Z,10.57
2022-09-10T18:23:20.508Z,11.65
2022-09-10T18:28:24.586Z,8.95
2022-09-10T18:33:29.904Z,8.73
2022-09-10T18:38:33.741Z,9.38
2022-09-10T18:43:38.541Z,11.00
2022-09-10T18:48:44.784Z,10.40
2022-09-10T18:53:50.022Z,10.63
2022-09-10T18:58:56.653Z,10.18
2022-09-10T19:04:03.190Z,10.82
2022-09-10T19:09:10.924Z,10.40
2022-09-10T19:14:18.164Z,11.05
2022-09-10T19:19:26.110Z,12.32
2022-09-10T19:24:54.071Z,11.77
2022-09-10T19:29:55.954Z,10.90
2022-09-10T19:35:01.388Z,11.40
2022-09-10T19:45:11.174Z,12.35
2022-09-10T19:50:20.271Z,10.80
2022-09-10T19:55:27.064Z,11.18
2022-09-10T20:00:46.509Z,9.80
2022-09-10T20:05:53.163Z,10.38
2022-09-10T20:10:57.658Z,11.88
2022-09-10T20:16:02.734Z,12.15
2022-09-10T20:21:14.249Z,12.80
2022-09-10T20:26:19.827Z,12.10
2022-09-10T20:31:25.604Z,14.15
2022-09-10T20:41:35.375Z,12.57
2022-09-10T20:46:41.858Z,14.38
2022-09-10T20:51:47.391Z,11.85
2022-09-10T20:56:51.337Z,15.57
2022-09-10T21:01:56.693Z,13.27
2022-09-10T21:07:02.099Z,12.63
2022-09-10T21:12:06.973Z,14.85
2022-09-10T21:17:10.729Z,13.85
2022-09-10T21:22:15.790Z,12.68
2022-09-10T21:27:19.553Z,12.10
2022-09-10T21:32:23.668Z,11.73
2022-09-10T21:37:28.801Z,10.80
2022-09-10T21:42:32.914Z,11.40
2022-09-10T21:47:36.585Z,11.38
2022-09-10T21:52:41.920Z,10.02
2022-09-10T21:57:45.729Z,9.25
2022-09-10T22:02:51.087Z,10.23
2022-09-10T22:07:56.163Z,11.95
2022-09-10T22:13:00.169Z,12.60
2022-09-10T22:18:04.105Z,12.10
2022-09-10T22:23:09.435Z,11.48
2022-09-10T22:28:14.650Z,10.80
2022-09-10T22:33:18.531Z,11.88
2022-09-10T22:38:24.140Z,11.68
2022-09-10T22:43:28.123Z,11.40
2022-09-10T22:48:32.076Z,11.43
2022-09-10T22:53:42.549Z,9.60
2022-09-10T22:58:47.937Z,8.65
2022-09-10T23:03:53.014Z,8.63
2022-09-10T23:09:03.275Z,8.15
2022-09-10T23:14:09.416Z,7.95
2022-09-10T23:19:15.899Z,7.40
2022-09-10T23:24:24.383Z,7.78
2022-09-10T23:29:28.357Z,7.45
2022-09-10T23:34:32.414Z,8.05
2022-09-10T23:39:38.144Z,7.18
2022-09-10T23:44:42.071Z,6.78
2022-09-10T23:49:45.923Z,6.68
2022-09-10T23:54:51.510Z,5.63
2022-09-10T23:59:56.104Z,6.63
